Time;durP1;ratioP1;P1;durP2;ratioP2;P2;SDS_P1;SDS_P2;PMS_P1;PMS_P2;Temp;Humidity;BMP_temperature;BMP_pressure;BME280_temperature;BME280_humidity;BME280_pressure;Samples;Min_cycle;Max_cycle;Signal;HPM_P1;HPM_P2
2021/08/15 00:00:10;;;;;;;11.23;3.72;;;17.70;92.60;;;;;;5061201;28;20064;-69
2021/08/15 00:02:36;;;;;;;10.50;4.05;;;17.70;92.50;;;;;;5058664;28;20075;-69
2021/08/15 00:05:03;;;;;;;11.07;3.92;;;17.60;92.60;;;;;;5058395;28;20446;-69
2021/08/15 00:07:29;;;;;;;10.10;4.05;;;17.60;92.70;;;;;;5059030;28;20074;-69
2021/08/15 00:09:55;;;;;;;9.77;4.43;;;17.60;92.60;;;;;;5058850;28;20025;-68
2021/08/15 00:12:20;;;;;;;11.63;4.28;;;17.60;92.60;;;;;;5060042;28;20090;-69
2021/08/15 00:14:46;;;;;;;14.30;4.43;;;17.60;92.70;;;;;;5041437;28;20040;-69
2021/08/15 00:17:12;;;;;;;11.98;3.88;;;17.60;92.70;;;;;;5059124;28;20495;-69
2021/08/15 00:19:38;;;;;;;13.73;5.60;;;17.60;92.60;;;;;;5058117;28;20298;-68
2021/08/15 00:22:05;;;;;;;12.32;4.32;;;17.60;92.90;;;;;;5057201;28;20032;-69
2021/08/15 00:24:32;;;;;;;13.07;4.50;;;17.50;92.70;;;;;;5058541;28;20044;-69
2021/08/15 00:26:58;;;;;;;11.82;4.60;;;17.50;92.80;;;;;;5058539;28;20046;-69
2021/08/15 00:29:26;;;;;;;9.18;4.45;;;17.50;92.80;;;;;;5058228;28;20021;-69
2021/08/15 00:31:52;;;;;;;11.25;4.15;;;17.50;92.80;;;;;;5058839;28;20529;-69
2021/08/15 00:34:18;;;;;;;9.07;3.90;;;17.40;92.90;;;;;;5059195;28;20024;-68
2021/08/15 00:36:43;;;;;;;13.45;4.47;;;17.40;92.90;;;;;;5057058;28;20033;-68
2021/08/15 00:39:09;;;;;;;10.90;4.18;;;17.40;92.80;;;;;;5040284;28;20017;-69
2021/08/15 00:41:35;;;;;;;13.38;5.35;;;17.40;92.90;;;;;;5058209;28;20495;-69
2021/08/15 00:44:03;;;;;;;13.73;4.50;;;17.40;92.90;;;;;;5059551;28;20025;-69
2021/08/15 00:46:30;;;;;;;10.88;3.72;;;17.40;92.90;;;;;;5058973;28;20025;-69
2021/08/15 00:48:56;;;;;;;15.65;4.20;;;17.40;93.00;;;;;;5059232;28;20230;-69
2021/08/15 00:51:21;;;;;;;7.63;3.72;;;17.40;93.10;;;;;;5059076;28;20479;-69
2021/08/15 00:53:48;;;;;;;13.65;4.75;;;17.40;93.10;;;;;;5040118;28;20036;-69
2021/08/15 00:56:14;;;;;;;11.02;3.85;;;17.40;93.20;;;;;;5059173;28;20093;-69
2021/08/15 00:58:42;;;;;;;13.77;4.20;;;17.50;93.20;;;;;;5058759;28;20498;-69
2021/08/15 01:01:09;;;;;;;11.05;4.50;;;17.50;93.20;;;;;;5058196;28;20145;-69
2021/08/15 01:03:36;;;;;;;11.70;4.20;;;17.50;93.20;;;;;;5055997;28;20039;-69
2021/08/15 01:06:03;;;;;;;9.73;4.10;;;17.50;93.20;;;;;;5057680;28;20040;-69
2021/08/15 01:08:31;;;;;;;9.82;4.07;;;17.50;93.10;;;;;;5056571;28;20083;-69
2021/08/15 01:11:05;;;;;;;10.48;4.10;;;17.50;93.00;;;;;;5054798;28;20032;-69
2021/08/15 01:13:35;;;;;;;15.50;4.32;;;17.50;93.00;;;;;;5057332;28;20043;-68
2021/08/15 01:16:02;;;;;;;9.32;3.67;;;17.50;93.10;;;;;;5058455;28;20041;-69
2021/08/15 01:18:33;;;;;;;13.23;4.43;;;17.50;93.10;;;;;;5055521;28;20033;-69
2021/08/15 01:21:07;;;;;;;11.68;4.32;;;17.50;93.00;;;;;;5055610;28;20485;-68
2021/08/15 01:23:35;;;;;;;11.70;3.63;;;17.50;93.00;;;;;;5037741;28;20037;-69
2021/08/15 01:26:01;;;;;;;9.88;4.15;;;17.50;93.00;;;;;;5039581;28;20111;-69
2021/08/15 01:28:28;;;;;;;8.48;4.13;;;17.50;92.90;;;;;;5034638;28;20179;-68
2021/08/15 01:30:54;;;;;;;8.90;3.55;;;17.60;92.90;;;;;;5057805;28;20028;-69
2021/08/15 01:33:33;;;;;;;10.35;3.75;;;17.60;92.80;;;;;;5056879;28;20028;-69
2021/08/15 01:36:00;;;;;;;10.10;3.60;;;17.60;92.70;;;;;;5056183;28;20487;-68
2021/08/15 01:38:29;;;;;;;13.23;3.70;;;17.60;92.70;;;;;;5057913;28;20033;-69
2021/08/15 01:40:55;;;;;;;13.02;4.20;;;17.60;92.70;;;;;;5055505;28;20029;-69
2021/08/15 01:43:21;;;;;;;8.48;3.30;;;17.60;92.70;;;;;;5055726;28;20323;-69
2021/08/15 01:45:47;;;;;;;8.23;3.55;;;17.70;92.60;;;;;;5056851;28;20557;-68
2021/08/15 01:48:13;;;;;;;14.35;3.85;;;17.60;92.50;;;;;;5057605;28;20032;-68
2021/08/15 01:50:40;;;;;;;12.23;4.30;;;17.70;92.50;;;;;;5056815;28;20124;-69
2021/08/15 01:53:16;;;;;;;9.60;3.90;;;17.70;92.50;;;;;;5039398;28;20032;-68
2021/08/15 01:55:42;;;;;;;10.60;4.45;;;17.70;92.50;;;;;;5056761;28;20437;-69
2021/08/15 01:58:13;;;;;;;12.48;3.70;;;17.70;92.40;;;;;;5038163;28;20055;-69
2021/08/15 02:00:40;;;;;;;13.48;3.83;;;17.60;92.40;;;;;;5054978;28;20387;-68
2021/08/15 02:03:07;;;;;;;7.75;4.03;;;17.70;92.40;;;;;;5056501;28;20557;-69
2021/08/15 02:05:33;;;;;;;9.60;3.53;;;17.70;92.30;;;;;;5056425;28;20295;-69
2021/08/15 02:08:00;;;;;;;11.18;3.38;;;17.70;92.20;;;;;;5056949;28;20060;-69
2021/08/15 02:10:28;;;;;;;10.57;3.78;;;17.70;92.10;;;;;;5054538;28;20115;-69
2021/08/15 02:12:56;;;;;;;12.55;4.13;;;17.70;92.20;;;;;;5057229;28;20040;-69
2021/08/15 02:15:22;;;;;;;11.75;3.83;;;17.70;92.10;;;;;;5056405;28;20071;-69
2021/08/15 02:17:47;;;;;;;7.70;3.45;;;17.60;91.90;;;;;;5057767;28;20028;-69
2021/08/15 02:20:15;;;;;;;13.70;4.07;;;17.60;92.00;;;;;;5055651;28;20028;-69
2021/08/15 02:22:41;;;;;;;9.50;3.75;;;17.60;92.10;;;;;;5055322;28;20039;-69
2021/08/15 02:25:11;;;;;;;15.35;4.38;;;17.60;92.10;;;;;;5056338;28;20044;-69
2021/08/15 02:27:38;;;;;;;6.65;3.30;;;17.70;92.20;;;;;;5056589;28;20032;-69
2021/08/15 02:30:05;;;;;;;7.05;3.63;;;17.70;92.30;;;;;;5056546;28;20466;-68
2021/08/15 02:32:31;;;;;;;7.18;3.33;;;17.70;92.50;;;;;;5058714;28;20082;-69
2021/08/15 02:35:00;;;;;;;6.72;3.50;;;17.60;92.50;;;;;;5056843;28;20536;-69
2021/08/15 02:37:26;;;;;;;8.93;3.67;;;17.60;92.60;;;;;;5056474;28;20084;-68
2021/08/15 02:39:52;;;;;;;8.70;3.95;;;17.60;92.70;;;;;;5058403;28;20059;-69
2021/08/15 02:42:19;;;;;;;13.65;4.78;;;17.60;92.70;;;;;;5055966;28;20530;-69
2021/08/15 02:44:45;;;;;;;9.43;4.18;;;17.60;92.70;;;;;;5057278;28;20119;-69
2021/08/15 02:47:11;;;;;;;9.00;4.07;;;17.60;92.70;;;;;;5056784;28;20100;-69
2021/08/15 02:49:40;;;;;;;10.30;3.97;;;17.60;92.80;;;;;;5055186;28;20021;-69
2021/08/15 02:52:07;;;;;;;9.75;3.90;;;17.70;92.70;;;;;;5055435;28;20021;-69
2021/08/15 02:54:35;;;;;;;10.27;4.30;;;17.70;92.70;;;;;;5057459;28;20196;-69
2021/08/15 02:57:01;;;;;;;11.07;4.53;;;17.60;92.70;;;;;;5060380;28;20025;-69
2021/08/15 02:59:27;;;;;;;10.27;4.18;;;17.70;92.60;;;;;;5061544;28;20085;-69
2021/08/15 03:01:53;;;;;;;10.85;4.03;;;17.70;92.70;;;;;;5056174;28;20028;-69
2021/08/15 03:04:18;;;;;;;9.07;3.97;;;17.60;92.60;;;;;;5060410;28;20035;-69
2021/08/15 03:06:44;;;;;;;10.02;3.95;;;17.70;92.60;;;;;;5060621;28;20117;-69
2021/08/15 03:09:09;;;;;;;8.55;3.83;;;17.60;92.60;;;;;;5060065;28;20444;-68
2021/08/15 03:11:35;;;;;;;7.18;3.65;;;17.60;92.60;;;;;;5059915;28;20032;-69
2021/08/15 03:14:01;;;;;;;7.50;3.35;;;17.60;92.50;;;;;;5041771;28;20159;-69
2021/08/15 03:16:27;;;;;;;8.30;3.40;;;17.60;92.40;;;;;;5058795;28;20051;-69
2021/08/15 03:18:52;;;;;;;13.13;3.90;;;17.60;92.40;;;;;;5060892;28;20033;-69
2021/08/15 03:21:18;;;;;;;12.50;4.30;;;17.60;92.30;;;;;;5061171;28;20025;-68
2021/08/15 03:23:44;;;;;;;9.43;3.55;;;17.60;92.30;;;;;;5060614;28;20036;-69
2021/08/15 03:26:11;;;;;;;11.75;4.45;;;17.60;92.20;;;;;;5062458;28;20035;-69
2021/08/15 03:28:37;;;;;;;7.78;3.85;;;17.60;92.30;;;;;;5042333;28;20056;-68
2021/08/15 03:31:03;;;;;;;9.02;4.20;;;17.60;92.60;;;;;;5061270;28;20529;-68
2021/08/15 03:33:29;;;;;;;10.70;3.42;;;17.60;92.90;;;;;;5061094;28;20029;-69
2021/08/15 03:35:54;;;;;;;9.57;3.95;;;17.50;93.10;;;;;;5041367;28;20481;-69
2021/08/15 03:38:20;;;;;;;12.60;4.45;;;17.50;93.30;;;;;;5060660;28;20036;-69
2021/08/15 03:40:46;;;;;;;12.15;4.68;;;17.50;93.60;;;;;;5061573;28;20053;-69
2021/08/15 03:43:12;;;;;;;10.30;4.68;;;17.40;93.70;;;;;;5041407;28;20025;-69
2021/08/15 03:45:39;;;;;;;9.98;4.75;;;17.40;93.80;;;;;;5044618;28;20036;-69
2021/08/15 03:48:06;;;;;;;11.18;4.60;;;17.40;94.00;;;;;;5044675;28;20367;-69
2021/08/15 03:50:32;;;;;;;9.82;4.10;;;17.40;94.10;;;;;;5061263;28;20029;-69
2021/08/15 03:52:57;;;;;;;9.77;4.40;;;17.40;94.10;;;;;;5042631;28;20386;-69
2021/08/15 03:55:23;;;;;;;7.25;3.72;;;17.40;94.20;;;;;;5061160;28;20044;-68
2021/08/15 03:57:48;;;;;;;9.32;4.22;;;17.30;94.30;;;;;;5062656;28;20105;-69
2021/08/15 04:00:15;;;;;;;8.60;4.80;;;17.30;94.40;;;;;;5062641;28;20068;-70
2021/08/15 04:02:40;;;;;;;12.90;4.45;;;17.30;94.60;;;;;;5061402;28;20025;-69
2021/08/15 04:05:06;;;;;;;12.68;5.05;;;17.30;94.80;;;;;;5060786;28;20081;-69
2021/08/15 04:07:32;;;;;;;8.63;4.60;;;17.30;94.90;;;;;;5062352;28;20028;-69
2021/08/15 04:09:58;;;;;;;13.13;5.25;;;17.20;94.80;;;;;;5056819;28;20020;-69
2021/08/15 04:12:23;;;;;;;8.55;4.32;;;17.20;95.40;;;;;;5057231;28;20032;-69
2021/08/15 04:14:49;;;;;;;13.65;4.57;;;17.10;95.30;;;;;;5061493;28;20459;-69
2021/08/15 04:17:16;;;;;;;11.18;4.63;;;17.10;95.40;;;;;;5061201;28;20036;-69
2021/08/15 04:19:43;;;;;;;11.93;5.50;;;17.10;95.60;;;;;;5042517;28;20080;-68
2021/08/15 04:22:10;;;;;;;10.70;4.80;;;17.10;95.60;;;;;;5060211;28;20016;-69
2021/08/15 04:24:35;;;;;;;8.55;4.20;;;17.10;95.80;;;;;;5040992;28;20291;-69
2021/08/15 04:27:01;;;;;;;11.27;4.93;;;17.00;95.70;;;;;;5058572;28;20032;-69
2021/08/15 04:29:27;;;;;;;9.13;4.43;;;17.00;95.80;;;;;;5060411;28;20033;-69
2021/08/15 04:31:52;;;;;;;14.02;5.70;;;17.00;95.80;;;;;;5039509;28;20132;-68
2021/08/15 04:34:18;;;;;;;10.43;5.22;;;17.00;95.90;;;;;;5059721;28;20040;-69
2021/08/15 04:36:44;;;;;;;10.40;4.93;;;17.00;96.00;;;;;;5059175;28;20071;-69
2021/08/15 04:39:09;;;;;;;10.77;5.30;;;17.00;96.10;;;;;;5057093;28;20078;-69
2021/08/15 04:41:35;;;;;;;11.48;5.88;;;17.00;96.10;;;;;;5058359;28;20078;-68
2021/08/15 04:44:01;;;;;;;7.88;5.00;;;17.00;96.20;;;;;;5058380;28;20425;-68
2021/08/15 04:46:26;;;;;;;10.98;5.07;;;17.00;96.30;;;;;;5058675;28;20040;-69
2021/08/15 04:48:52;;;;;;;9.77;4.63;;;17.00;96.60;;;;;;5056685;28;20111;-69
2021/08/15 04:51:18;;;;;;;13.25;5.97;;;17.00;96.60;;;;;;5058860;28;20112;-69
2021/08/15 04:53:43;;;;;;;10.32;4.47;;;16.90;96.50;;;;;;5059286;28;20040;-69
2021/08/15 04:56:09;;;;;;;7.70;4.63;;;16.90;96.50;;;;;;5058715;28;20597;-69
2021/08/15 04:58:36;;;;;;;7.93;5.13;;;16.90;96.60;;;;;;5056876;28;20032;-68
2021/08/15 05:01:03;;;;;;;9.25;5.25;;;16.90;96.60;;;;;;5058737;28;20040;-69
2021/08/15 05:03:28;;;;;;;10.02;5.05;;;16.90;96.60;;;;;;5040754;28;20040;-68
2021/08/15 05:05:54;;;;;;;7.63;4.95;;;16.90;96.60;;;;;;5059123;28;20029;-69
2021/08/15 05:08:20;;;;;;;8.48;4.43;;;16.90;96.60;;;;;;5041917;28;20024;-69
2021/08/15 05:10:45;;;;;;;8.13;4.72;;;17.00;96.60;;;;;;5039166;28;20052;-69
2021/08/15 05:13:11;;;;;;;9.60;5.13;;;17.00;96.70;;;;;;5058908;28;20087;-69
2021/08/15 05:15:37;;;;;;;10.20;5.40;;;17.00;96.50;;;;;;5038557;28;20032;-68
2021/08/15 05:18:03;;;;;;;9.02;5.40;;;17.00;96.60;;;;;;5060173;28;20435;-69
2021/08/15 05:20:30;;;;;;;12.40;6.03;;;17.00;96.60;;;;;;5058323;28;20079;-69
2021/08/15 05:22:58;;;;;;;10.90;5.25;;;17.00;96.60;;;;;;5059236;28;20478;-68
2021/08/15 05:25:25;;;;;;;11.68;5.68;;;17.00;96.60;;;;;;5058944;28;20043;-68
2021/08/15 05:27:51;;;;;;;8.48;5.25;;;17.00;96.50;;;;;;5058475;28;20040;-69
2021/08/15 05:30:17;;;;;;;10.30;5.40;;;17.00;96.60;;;;;;5056576;28;20025;-68
2021/08/15 05:32:43;;;;;;;10.00;5.40;;;17.00;96.50;;;;;;5039715;28;20039;-68
2021/08/15 05:35:10;;;;;;;10.65;5.40;;;17.00;96.50;;;;;;5057867;28;20032;-69
2021/08/15 05:37:38;;;;;;;11.23;5.38;;;17.10;96.50;;;;;;5058202;28;20453;-68
2021/08/15 05:40:04;;;;;;;11.30;5.38;;;17.00;96.50;;;;;;5057053;28;20117;-68
2021/08/15 05:42:30;;;;;;;13.05;5.72;;;17.10;96.50;;;;;;5040029;28;20033;-68
2021/08/15 05:44:55;;;;;;;12.02;5.45;;;17.10;96.30;;;;;;5057583;28;20043;-68
2021/08/15 05:47:21;;;;;;;10.98;5.50;;;17.20;96.30;;;;;;5039450;28;20033;-69
2021/08/15 05:49:47;;;;;;;11.63;5.70;;;17.10;96.30;;;;;;5057160;28;20381;-69
2021/08/15 05:52:13;;;;;;;13.70;5.97;;;17.10;96.30;;;;;;5057690;28;20032;-69
2021/08/15 05:54:38;;;;;;;10.43;5.88;;;17.10;96.40;;;;;;5056122;28;20081;-68
2021/08/15 05:57:04;;;;;;;10.60;5.55;;;17.10;96.40;;;;;;5057432;28;20024;-68
2021/08/15 05:59:30;;;;;;;9.23;5.47;;;17.10;96.30;;;;;;5057638;28;20025;-69
2021/08/15 06:01:55;;;;;;;11.73;5.57;;;17.10;96.30;;;;;;5057398;28;20029;-69
2021/08/15 06:04:21;;;;;;;12.35;6.40;;;17.20;96.30;;;;;;5057431;28;20036;-69
2021/08/15 06:06:47;;;;;;;10.93;5.82;;;17.10;96.30;;;;;;5056728;28;20382;-68
2021/08/15 06:09:13;;;;;;;11.30;5.47;;;17.20;96.10;;;;;;5038307;28;20155;-69
2021/08/15 06:11:39;;;;;;;8.00;5.20;;;17.20;96.10;;;;;;5054574;28;20025;-68
2021/08/15 06:14:05;;;;;;;8.38;4.28;;;17.20;96.10;;;;;;5039415;28;20032;-69
2021/08/15 06:16:30;;;;;;;8.80;4.55;;;17.10;96.10;;;;;;5056713;28;20273;-69
2021/08/15 06:18:56;;;;;;;6.82;4.00;;;17.20;95.60;;;;;;5039201;28;20029;-69
2021/08/15 06:21:22;;;;;;;7.60;4.10;;;17.10;95.70;;;;;;5054813;28;20029;-68
2021/08/15 06:23:49;;;;;;;7.13;3.88;;;17.10;95.80;;;;;;5055925;28;20426;-69
2021/08/15 06:26:15;;;;;;;7.55;3.90;;;17.00;95.90;;;;;;5055104;28;20035;-69
2021/08/15 06:28:41;;;;;;;5.93;3.28;;;17.10;95.90;;;;;;5042361;28;20025;-69
2021/08/15 06:31:07;;;;;;;6.38;3.15;;;17.10;95.90;;;;;;5059880;28;20580;-69
2021/08/15 06:33:33;;;;;;;6.20;3.05;;;17.10;95.90;;;;;;5042447;28;20056;-69
2021/08/15 06:35:58;;;;;;;5.97;2.70;;;17.00;95.70;;;;;;5043173;28;20099;-68
2021/08/15 06:38:24;;;;;;;5.43;2.70;;;17.00;95.90;;;;;;5061529;28;20036;-68
2021/08/15 06:40:49;;;;;;;4.55;3.20;;;17.10;95.70;;;;;;5060702;28;20040;-68
2021/08/15 06:43:15;;;;;;;5.93;3.42;;;17.00;95.60;;;;;;5060564;28;20498;-69
2021/08/15 06:45:43;;;;;;;4.07;2.47;;;17.10;95.40;;;;;;5061888;28;20524;-69
2021/08/15 06:48:09;;;;;;;5.20;2.70;;;17.00;95.40;;;;;;5060905;28;20103;-69
2021/08/15 06:50:35;;;;;;;5.72;2.55;;;17.00;95.40;;;;;;5050525;28;20151;-69
2021/08/15 06:53:02;;;;;;;4.30;2.53;;;16.90;95.50;;;;;;5059572;28;20035;-69
2021/08/15 06:55:27;;;;;;;5.10;2.95;;;17.00;95.60;;;;;;5058241;28;20087;-69
2021/08/15 06:57:53;;;;;;;5.20;2.95;;;17.00;95.60;;;;;;5059327;28;20033;-69
2021/08/15 07:00:19;;;;;;;7.57;3.45;;;17.00;95.60;;;;;;5042069;28;20032;-67
2021/08/15 07:02:48;;;;;;;6.82;2.85;;;17.10;95.60;;;;;;5043700;28;20383;-68
2021/08/15 07:05:15;;;;;;;4.20;2.90;;;17.10;95.70;;;;;;5042650;28;20097;-69
2021/08/15 07:07:40;;;;;;;8.98;3.13;;;17.10;95.70;;;;;;5058949;28;20465;-69
2021/08/15 07:10:07;;;;;;;5.45;3.20;;;17.10;95.70;;;;;;5060927;28;20104;-69
2021/08/15 07:12:33;;;;;;;5.82;3.03;;;17.10;95.40;;;;;;5062200;28;20025;-67
2021/08/15 07:14:58;;;;;;;7.10;3.75;;;17.10;95.60;;;;;;5059744;28;20048;-67
2021/08/15 07:17:24;;;;;;;6.43;4.13;;;17.10;95.70;;;;;;5060055;28;20025;-67
2021/08/15 07:19:50;;;;;;;6.40;3.90;;;17.10;95.70;;;;;;5059456;28;20029;-67
2021/08/15 07:22:16;;;;;;;7.30;4.35;;;17.10;95.60;;;;;;5060495;28;20057;-69
2021/08/15 07:25:09;;;;;;;;;;;;;;;;;;;;;
2021/08/15 07:27:38;;;;;;;10.82;4.78;;;17.10;95.90;;;;;;5042909;28;19947;-68
2021/08/15 07:30:05;;;;;;;9.70;4.57;;;17.10;95.90;;;;;;5060938;28;20052;-68
2021/08/15 07:32:31;;;;;;;8.48;4.93;;;17.10;96.00;;;;;;5056019;28;20073;-69
2021/08/15 07:34:57;;;;;;;9.68;5.20;;;17.20;96.00;;;;;;5059636;28;20538;-68
2021/08/15 07:37:22;;;;;;;9.45;4.95;;;17.20;96.00;;;;;;5043359;28;20083;-68
2021/08/15 07:39:48;;;;;;;9.15;5.00;;;17.20;95.90;;;;;;5058426;28;20024;-68
2021/08/15 07:42:14;;;;;;;7.03;4.03;;;17.20;95.80;;;;;;5061713;28;20033;-68
2021/08/15 07:44:40;;;;;;;8.27;4.25;;;17.20;95.80;;;;;;5061037;28;20084;-68
2021/08/15 07:47:06;;;;;;;7.40;3.88;;;17.30;95.70;;;;;;5061338;28;20454;-68
2021/08/15 07:49:33;;;;;;;8.05;4.63;;;17.30;95.70;;;;;;5056270;28;20395;-67
2021/08/15 07:51:59;;;;;;;9.00;4.60;;;17.30;95.70;;;;;;5059256;28;20025;-67
2021/08/15 07:54:24;;;;;;;8.05;3.97;;;17.30;95.70;;;;;;5039180;28;20665;-67
2021/08/15 07:56:50;;;;;;;7.45;3.63;;;17.30;95.50;;;;;;5058942;28;20064;-67
2021/08/15 07:59:16;;;;;;;6.38;3.72;;;17.30;95.50;;;;;;5060692;28;20086;-69
2021/08/15 08:01:43;;;;;;;6.93;3.40;;;17.40;95.50;;;;;;5045437;28;20036;-68
2021/08/15 08:04:09;;;;;;;8.20;4.15;;;17.40;95.40;;;;;;5061375;28;20033;-67
2021/08/15 08:06:34;;;;;;;7.63;4.20;;;17.40;95.40;;;;;;5058393;28;20028;-68
2021/08/15 08:09:00;;;;;;;7.47;3.67;;;17.50;95.50;;;;;;5039503;28;20491;-67
2021/08/15 08:11:26;;;;;;;6.93;4.18;;;17.40;95.50;;;;;;5059559;28;20032;-67
2021/08/15 08:13:51;;;;;;;7.03;3.85;;;17.50;95.50;;;;;;5063823;28;20037;-69
2021/08/15 08:16:17;;;;;;;8.15;4.38;;;17.50;95.60;;;;;;5061458;28;20036;-68
2021/08/15 08:18:44;;;;;;;7.90;4.25;;;17.50;95.60;;;;;;5042181;28;20491;-68
2021/08/15 08:21:10;;;;;;;10.15;4.95;;;17.50;95.70;;;;;;5058752;28;20025;-68
2021/08/15 08:23:35;;;;;;;7.80;4.53;;;17.50;95.60;;;;;;5057596;28;20052;-68
2021/08/15 08:26:01;;;;;;;9.73;5.03;;;17.50;95.60;;;;;;5061094;28;20161;-68
2021/08/15 08:28:28;;;;;;;11.05;4.53;;;17.50;95.70;;;;;;5060209;28;20029;-68
2021/08/15 08:30:54;;;;;;;8.25;4.10;;;17.50;95.50;;;;;;5059727;28;20300;-69
2021/08/15 08:33:20;;;;;;;8.38;4.00;;;17.50;95.50;;;;;;5042978;28;20447;-68
2021/08/15 08:35:46;;;;;;;8.40;4.45;;;17.50;95.60;;;;;;5043475;28;20106;-68
2021/08/15 08:38:12;;;;;;;9.98;4.55;;;17.50;95.60;;;;;;5040494;28;20076;-67
2021/08/15 08:40:42;;;;;;;8.45;4.70;;;17.50;95.60;;;;;;5057012;28;20040;-68
2021/08/15 08:43:08;;;;;;;7.63;4.00;;;17.50;95.60;;;;;;5053846;28;20529;-69
2021/08/15 08:45:36;;;;;;;9.85;5.25;;;17.50;95.60;;;;;;5058707;28;20040;-68
2021/08/15 08:48:03;;;;;;;6.88;3.83;;;17.60;95.60;;;;;;5038439;28;20393;-69
2021/08/15 08:50:29;;;;;;;9.02;4.43;;;17.70;95.60;;;;;;5040625;28;20086;-69
2021/08/15 08:52:55;;;;;;;8.10;4.45;;;17.80;95.50;;;;;;5040034;28;20028;-68
2021/08/15 08:55:23;;;;;;;9.52;4.50;;;17.80;95.60;;;;;;5039701;28;20055;-69
2021/08/15 08:57:49;;;;;;;7.15;5.10;;;17.90;95.30;;;;;;5039598;28;20029;-68
2021/08/15 09:00:18;;;;;;;8.88;4.70;;;18.00;95.20;;;;;;5057178;28;20100;-69
2021/08/15 09:02:44;;;;;;;9.52;5.10;;;18.10;95.10;;;;;;5041546;28;20123;-69
2021/08/15 09:05:10;;;;;;;11.52;6.05;;;18.10;94.90;;;;;;5058337;28;20116;-69
2021/08/15 09:07:38;;;;;;;11.55;5.50;;;18.00;94.70;;;;;;5058296;28;20090;-68
2021/08/15 09:10:07;;;;;;;9.20;5.72;;;18.10;94.80;;;;;;5057925;28;20060;-68
2021/08/15 09:12:41;;;;;;;11.88;5.53;;;18.30;94.50;;;;;;5038838;28;20063;-68
2021/08/15 09:15:09;;;;;;;10.68;7.13;;;18.50;94.50;;;;;;5057916;28;20037;-68
2021/08/15 09:17:36;;;;;;;11.80;6.45;;;18.60;94.00;;;;;;5039453;28;20036;-69
2021/08/15 09:20:03;;;;;;;11.07;5.63;;;18.60;93.80;;;;;;5057747;28;20561;-68
2021/08/15 09:22:31;;;;;;;18.45;9.00;;;18.60;94.10;;;;;;5057567;28;20120;-69
2021/08/15 09:25:12;;;;;;;19.23;8.73;;;18.60;93.80;;;;;;5038545;28;20093;-68
2021/08/15 09:27:50;;;;;;;13.38;8.10;;;18.50;94.10;;;;;;5040006;28;20279;-69
2021/08/15 09:30:31;;;;;;;13.02;6.85;;;18.50;94.00;;;;;;5058774;28;20097;-69
2021/08/15 09:33:06;;;;;;;13.32;7.20;;;18.60;94.30;;;;;;5042276;28;20441;-68
2021/08/15 09:35:39;;;;;;;14.15;7.93;;;18.60;94.50;;;;;;5054395;28;20499;-69
2021/08/15 09:38:06;;;;;;;18.00;10.20;;;18.70;94.60;;;;;;5021085;28;1045873;-69
2021/08/15 09:40:38;;;;;;;17.63;8.50;;;18.80;93.60;;;;;;5058365;28;20039;-69
2021/08/15 09:43:07;;;;;;;17.88;9.73;;;18.80;93.80;;;;;;5039317;28;20071;-69
2021/08/15 09:45:44;;;;;;;14.02;7.38;;;18.80;93.90;;;;;;5057713;28;20036;-68
2021/08/15 09:48:27;;;;;;;26.33;12.63;;;18.90;94.00;;;;;;5057870;28;20021;-69
2021/08/15 09:51:08;;;;;;;18.90;10.77;;;18.80;93.20;;;;;;5056760;28;20053;-68
2021/08/15 09:53:36;;;;;;;21.33;10.85;;;18.90;93.50;;;;;;5057953;28;20079;-69
2021/08/15 09:56:03;;;;;;;18.90;9.50;;;18.80;93.00;;;;;;5057072;28;20458;-69
2021/08/15 09:58:29;;;;;;;20.85;10.45;;;18.80;93.40;;;;;;5039665;28;20020;-69
2021/08/15 10:00:56;;;;;;;18.23;9.70;;;18.70;93.60;;;;;;5057427;28;20029;-69
2021/08/15 10:03:22;;;;;;;15.95;10.50;;;18.70;93.80;;;;;;5041694;28;20098;-69
2021/08/15 10:05:49;;;;;;;18.15;10.73;;;18.60;93.80;;;;;;5060839;28;20167;-68
2021/08/15 10:08:15;;;;;;;23.60;11.13;;;18.50;94.10;;;;;;5043322;28;20027;-67
2021/08/15 10:10:41;;;;;;;20.65;11.70;;;18.60;94.10;;;;;;5061077;28;20033;-68
2021/08/15 10:13:07;;;;;;;24.85;11.90;;;18.60;94.10;;;;;;5061648;28;20121;-69
2021/08/15 10:15:35;;;;;;;21.27;11.05;;;18.50;94.20;;;;;;5062572;28;20025;-69
2021/08/15 10:18:04;;;;;;;26.83;13.23;;;18.60;94.50;;;;;;5061443;28;20116;-68
2021/08/15 10:20:31;;;;;;;24.95;11.13;;;18.60;94.30;;;;;;5044151;28;20036;-69
2021/08/15 10:23:09;;;;;;;21.13;11.75;;;18.60;94.40;;;;;;5058531;28;20028;-69
2021/08/15 10:25:41;;;;;;;23.10;11.00;;;18.60;94.40;;;;;;5061402;28;20474;-68
2021/08/15 10:28:08;;;;;;;22.55;10.95;;;18.60;94.40;;;;;;5043183;28;20027;-68
2021/08/15 10:30:33;;;;;;;19.90;10.68;;;18.60;94.40;;;;;;5060627;28;20037;-69
2021/08/15 10:32:59;;;;;;;19.63;11.50;;;18.70;94.40;;;;;;5061443;28;20029;-69
2021/08/15 10:35:25;;;;;;;20.55;11.32;;;18.70;94.40;;;;;;5060294;28;20364;-68
2021/08/15 10:37:53;;;;;;;22.13;11.52;;;18.80;94.30;;;;;;5060679;28;20506;-69
2021/08/15 10:43:10;;;;;;;22.88;10.55;;;18.90;94.20;;;;;;5060362;28;20482;-69
2021/08/15 10:45:37;;;;;;;19.02;9.95;;;18.90;94.10;;;;;;5061026;28;20120;-68
2021/08/15 10:48:05;;;;;;;20.25;10.30;;;19.00;94.30;;;;;;5059791;28;20095;-69
2021/08/15 10:50:46;;;;;;;19.67;9.35;;;19.00;94.20;;;;;;5042884;28;20020;-68
2021/08/15 10:53:29;;;;;;;17.60;10.10;;;19.00;94.30;;;;;;5060570;28;20479;-68
2021/08/15 10:55:55;;;;;;;22.55;10.23;;;19.10;94.00;;;;;;5040979;28;20024;-69
2021/08/15 10:58:46;;;;;;;17.95;9.35;;;19.30;93.70;;;;;;5060575;28;20103;-68
2021/08/15 11:01:15;;;;;;;17.40;9.10;;;19.40;93.60;;;;;;5062908;28;20029;-68
2021/08/15 11:03:47;;;;;;;21.88;9.40;;;19.60;93.50;;;;;;5059813;28;20033;-67
2021/08/15 11:06:31;;;;;;;19.35;9.38;;;19.90;93.20;;;;;;5060340;28;20032;-68
2021/08/15 11:08:58;;;;;;;16.45;9.10;;;20.30;92.60;;;;;;5060145;28;20074;-68
2021/08/15 11:11:26;;;;;;;18.95;9.10;;;20.50;92.10;;;;;;5061887;28;20039;-67
2021/08/15 11:14:17;;;;;;;20.88;9.07;;;20.80;91.70;;;;;;5058142;28;20389;-67
2021/08/15 11:16:47;;;;;;;13.03;7.10;;;21.00;91.40;;;;;;5061214;28;20029;-68
2021/08/15 11:19:16;;;;;;;20.23;8.23;;;21.20;92.00;;;;;;5058678;28;20487;-68
2021/08/15 11:22:10;;;;;;;16.63;8.57;;;21.60;92.30;;;;;;5045043;28;20506;-67
2021/08/15 11:24:45;;;;;;;12.80;7.05;;;22.20;91.20;;;;;;5060679;28;20047;-68
2021/08/15 11:27:13;;;;;;;15.60;7.18;;;23.40;89.10;;;;;;5059780;28;20087;-68
2021/08/15 11:29:40;;;;;;;12.60;6.45;;;25.10;83.20;;;;;;5060106;28;20475;-68
2021/08/15 11:32:15;;;;;;;13.20;6.53;;;27.30;75.20;;;;;;5056989;28;20478;-68
2021/08/15 11:35:03;;;;;;;11.15;5.20;;;29.40;68.90;;;;;;5058052;28;20552;-68
2021/08/15 11:37:32;;;;;;;10.77;4.95;;;31.70;63.50;;;;;;5059538;28;20039;-69
2021/08/15 11:40:16;;;;;;;12.40;5.80;;;33.00;57.90;;;;;;5060269;28;20060;-69
2021/08/15 11:42:44;;;;;;;10.07;5.28;;;33.90;53.90;;;;;;5059458;28;20037;-68
2021/08/15 11:45:10;;;;;;;8.02;5.20;;;34.70;50.40;;;;;;5059118;28;20376;-68
2021/08/15 11:47:40;;;;;;;11.80;6.57;;;35.60;48.60;;;;;;5059293;28;20035;-68
2021/08/15 11:50:20;;;;;;;11.15;6.68;;;35.90;44.40;;;;;;5057729;28;20025;-68
2021/08/15 11:52:48;;;;;;;9.73;5.13;;;36.10;45.50;;;;;;5059258;28;20042;-68
2021/08/15 11:55:20;;;;;;;12.48;5.97;;;36.30;45.90;;;;;;5061940;28;20036;-69
2021/08/15 11:58:00;;;;;;;9.18;5.63;;;35.80;45.30;;;;;;5061873;28;20020;-68
2021/08/15 12:00:31;;;;;;;10.13;5.03;;;35.30;45.40;;;;;;5060068;28;20060;-68
2021/08/15 12:03:16;;;;;;;8.88;5.82;;;34.80;46.10;;;;;;5059740;28;20042;-69
2021/08/15 12:05:52;;;;;;;10.63;5.07;;;34.10;46.30;;;;;;5058079;28;20437;-68
2021/08/15 12:08:39;;;;;;;8.70;5.38;;;33.30;48.60;;;;;;5054048;28;20394;-68
2021/08/15 12:11:23;;;;;;;9.70;5.68;;;33.00;48.80;;;;;;5060668;28;20032;-69
2021/08/15 12:13:49;;;;;;;9.65;6.38;;;32.90;49.80;;;;;;5060866;28;20908;-68
2021/08/15 12:16:15;;;;;;;11.95;6.38;;;32.70;47.70;;;;;;5026223;28;20070;-68
2021/08/15 12:18:48;;;;;;;11.05;6.10;;;31.20;51.00;;;;;;5057986;28;20120;-68
2021/08/15 12:21:17;;;;;;;8.32;5.40;;;30.40;53.40;;;;;;5041321;28;20407;-68
2021/08/15 12:24:07;;;;;;;9.82;5.63;;;29.90;55.90;;;;;;5058781;28;20040;-68
2021/08/15 12:26:41;;;;;;;10.48;5.13;;;29.80;55.00;;;;;;5056993;28;20039;-68
2021/08/15 12:29:21;;;;;;;9.20;5.32;;;29.30;56.90;;;;;;5060348;28;20083;-68
2021/08/15 12:31:59;;;;;;;9.73;5.60;;;28.80;58.90;;;;;;5058249;28;20035;-67
2021/08/15 12:34:25;;;;;;;9.50;5.82;;;28.60;59.40;;;;;;5059652;28;20278;-68
2021/08/15 12:36:53;;;;;;;10.60;5.68;;;28.60;58.20;;;;;;5059536;28;20040;-69
2021/08/15 12:39:33;;;;;;;12.43;5.30;;;28.60;60.10;;;;;;5059661;28;20040;-68
2021/08/15 12:42:04;;;;;;;8.40;5.05;;;29.10;58.10;;;;;;5056724;28;20028;-69
2021/08/15 12:44:33;;;;;;;10.30;5.00;;;29.80;58.30;;;;;;5041160;28;20159;-69
2021/08/15 12:47:05;;;;;;;10.00;4.40;;;30.40;58.30;;;;;;5040150;28;20490;-69